sensor_id;sensor_type;location;lat;lon;timestamp;temperature;humidity
19330;DHT22;9799;48.214;16.388;2022-12-11T00:00:52;4.10;99.90
19330;DHT22;9799;48.214;16.388;2022-12-11T00:04:13;4.00;99.90
19330;DHT22;9799;48.214;16.388;2022-12-11T00:07:36;4.00;99.90
19330;DHT22;9799;48.214;16.388;2022-12-11T00:10:57;4.00;99.90
19330;DHT22;9799;48.214;16.388;2022-12-11T00:14:19;4.00;99.90
19330;DHT22;9799;48.214;16.388;2022-12-11T00:17:40;3.90;99.90
19330;DHT22;9799;48.214;16.388;2022-12-11T00:21:03;4.00;99.90
19330;DHT22;9799;48.214;16.388;2022-12-11T00:24:26;4.00;99.90
19330;DHT22;9799;48.214;16.388;2022-12-11T00:27:47;3.90;99.90
19330;DHT22;9799;48.214;16.388;2022-12-11T00:31:11;4.00;99.90
19330;DHT22;9799;48.214;16.388;2022-12-11T00:34:33;4.10;99.90
19330;DHT22;9799;48.214;16.388;2022-12-11T00:37:54;4.10;99.90
19330;DHT22;9799;48.214;16.388;2022-12-11T00:41:17;3.90;99.90
19330;DHT22;9799;48.214;16.388;2022-12-11T00:44:39;3.90;99.90
19330;DHT22;9799;48.214;16.388;2022-12-11T00:48:00;3.90;99.90
19330;DHT22;9799;48.214;16.388;2022-12-11T00:51:21;3.80;99.90
19330;DHT22;9799;48.214;16.388;2022-12-11T00:54:42;3.90;99.90
19330;DHT22;9799;48.214;16.388;2022-12-11T00:58:05;3.90;99.90
19330;DHT22;9799;48.214;16.388;2022-12-11T01:01:27;3.70;99.90
19330;DHT22;9799;48.214;16.388;2022-12-11T01:04:48;3.60;99.90
19330;DHT22;9799;48.214;16.388;2022-12-11T01:08:09;3.60;99.90
19330;DHT22;9799;48.214;16.388;2022-12-11T01:11:30;3.70;99.90
19330;DHT22;9799;48.214;16.388;2022-12-11T01:14:53;3.60;99.90
19330;DHT22;9799;48.214;16.388;2022-12-11T01:18:14;3.70;99.90
19330;DHT22;9799;48.214;16.388;2022-12-11T01:21:36;3.70;99.90
19330;DHT22;9799;48.214;16.388;2022-12-11T01:24:57;3.60;99.90
19330;DHT22;9799;48.214;16.388;2022-12-11T01:28:18;3.60;99.90
19330;DHT22;9799;48.214;16.388;2022-12-11T01:31:41;3.50;99.90
19330;DHT22;9799;48.214;16.388;2022-12-11T01:35:03;3.50;99.90
19330;DHT22;9799;48.214;16.388;2022-12-11T01:38:24;3.60;99.90
19330;DHT22;9799;48.214;16.388;2022-12-11T01:41:45;3.60;99.90
19330;DHT22;9799;48.214;16.388;2022-12-11T01:45:24;3.60;99.90
19330;DHT22;9799;48.214;16.388;2022-12-11T01:48:48;3.60;99.90
19330;DHT22;9799;48.214;16.388;2022-12-11T01:52:13;3.70;99.90
19330;DHT22;9799;48.214;16.388;2022-12-11T01:55:37;3.70;99.90
19330;DHT22;9799;48.214;16.388;2022-12-11T01:59:02;3.70;99.90
19330;DHT22;9799;48.214;16.388;2022-12-11T02:02:29;3.70;99.90
19330;DHT22;9799;48.214;16.388;2022-12-11T02:05:52;3.70;99.90
19330;DHT22;9799;48.214;16.388;2022-12-11T02:09:18;3.70;99.90
19330;DHT22;9799;48.214;16.388;2022-12-11T02:12:48;3.70;99.90
19330;DHT22;9799;48.214;16.388;2022-12-11T02:16:16;3.70;99.90
19330;DHT22;9799;48.214;16.388;2022-12-11T02:19:54;3.70;99.90
19330;DHT22;9799;48.214;16.388;2022-12-11T02:23:51;3.70;99.90
19330;DHT22;9799;48.214;16.388;2022-12-11T02:27:22;3.70;99.90
19330;DHT22;9799;48.214;16.388;2022-12-11T02:30:49;3.60;99.90
19330;DHT22;9799;48.214;16.388;2022-12-11T02:34:13;3.60;99.90
19330;DHT22;9799;48.214;16.388;2022-12-11T02:37:38;3.70;99.90
19330;DHT22;9799;48.214;16.388;2022-12-11T02:41:02;3.50;99.90
19330;DHT22;9799;48.214;16.388;2022-12-11T02:44:26;3.60;99.90
19330;DHT22;9799;48.214;16.388;2022-12-11T02:47:49;3.60;99.90
19330;DHT22;9799;48.214;16.388;2022-12-11T02:51:13;3.70;99.90
19330;DHT22;9799;48.214;16.388;2022-12-11T02:54:37;3.70;99.90
19330;DHT22;9799;48.214;16.388;2022-12-11T02:58:03;3.70;99.90
19330;DHT22;9799;48.214;16.388;2022-12-11T03:01:25;3.70;99.90
19330;DHT22;9799;48.214;16.388;2022-12-11T03:04:49;3.60;99.90
19330;DHT22;9799;48.214;16.388;2022-12-11T03:08:10;3.60;99.90
19330;DHT22;9799;48.214;16.388;2022-12-11T03:11:37;3.60;99.90
19330;DHT22;9799;48.214;16.388;2022-12-11T03:15:00;3.60;99.90
19330;DHT22;9799;48.214;16.388;2022-12-11T03:18:30;3.60;99.90
19330;DHT22;9799;48.214;16.388;2022-12-11T03:22:01;3.50;99.90
19330;DHT22;9799;48.214;16.388;2022-12-11T03:25:31;3.60;99.90
19330;DHT22;9799;48.214;16.388;2022-12-11T03:28:56;3.50;99.90
19330;DHT22;9799;48.214;16.388;2022-12-11T03:32:21;3.40;99.90
19330;DHT22;9799;48.214;16.388;2022-12-11T03:35:47;3.40;99.90
19330;DHT22;9799;48.214;16.388;2022-12-11T03:39:14;3.40;99.90
19330;DHT22;9799;48.214;16.388;2022-12-11T03:42:38;3.40;99.90
19330;DHT22;9799;48.214;16.388;2022-12-11T03:46:00;3.50;99.90
19330;DHT22;9799;48.214;16.388;2022-12-11T03:49:23;3.40;99.90
19330;DHT22;9799;48.214;16.388;2022-12-11T03:52:46;3.40;99.90
19330;DHT22;9799;48.214;16.388;2022-12-11T03:56:11;3.40;99.90
19330;DHT22;9799;48.214;16.388;2022-12-11T03:59:33;3.30;99.90
19330;DHT22;9799;48.214;16.388;2022-12-11T04:02:54;3.40;99.90
19330;DHT22;9799;48.214;16.388;2022-12-11T04:06:33;3.40;99.90
19330;DHT22;9799;48.214;16.388;2022-12-11T04:09:54;3.20;99.90
19330;DHT22;9799;48.214;16.388;2022-12-11T04:13:16;3.20;99.90
19330;DHT22;9799;48.214;16.388;2022-12-11T04:16:37;3.20;99.90
19330;DHT22;9799;48.214;16.388;2022-12-11T04:19:58;3.20;99.90
19330;DHT22;9799;48.214;16.388;2022-12-11T04:23:36;3.20;99.90
19330;DHT22;9799;48.214;16.388;2022-12-11T04:27:16;3.20;99.90
19330;DHT22;9799;48.214;16.388;2022-12-11T04:30:59;3.10;99.90
19330;DHT22;9799;48.214;16.388;2022-12-11T04:34:20;3.00;99.90
19330;DHT22;9799;48.214;16.388;2022-12-11T04:37:42;3.00;99.90
19330;DHT22;9799;48.214;16.388;2022-12-11T04:41:05;3.00;99.90
19330;DHT22;9799;48.214;16.388;2022-12-11T04:44:26;2.90;99.90
19330;DHT22;9799;48.214;16.388;2022-12-11T04:47:48;2.90;99.90
19330;DHT22;9799;48.214;16.388;2022-12-11T04:51:10;2.90;99.90
19330;DHT22;9799;48.214;16.388;2022-12-11T04:54:32;2.80;99.90
19330;DHT22;9799;48.214;16.388;2022-12-11T04:57:53;2.80;99.90
19330;DHT22;9799;48.214;16.388;2022-12-11T05:01:17;2.90;99.90
19330;DHT22;9799;48.214;16.388;2022-12-11T05:04:40;2.80;99.90
19330;DHT22;9799;48.214;16.388;2022-12-11T05:08:02;2.80;99.90
19330;DHT22;9799;48.214;16.388;2022-12-11T05:11:23;2.80;99.90
19330;DHT22;9799;48.214;16.388;2022-12-11T05:14:44;2.80;99.90
19330;DHT22;9799;48.214;16.388;2022-12-11T05:18:05;2.70;99.90
19330;DHT22;9799;48.214;16.388;2022-12-11T05:21:28;2.70;99.90
19330;DHT22;9799;48.214;16.388;2022-12-11T05:24:49;2.70;99.90
19330;DHT22;9799;48.214;16.388;2022-12-11T05:28:10;2.70;99.90
19330;DHT22;9799;48.214;16.388;2022-12-11T05:31:31;2.60;99.90
19330;DHT22;9799;48.214;16.388;2022-12-11T05:34:53;2.60;99.90
19330;DHT22;9799;48.214;16.388;2022-12-11T05:38:15;2.50;99.90
19330;DHT22;9799;48.214;16.388;2022-12-11T05:41:36;2.40;99.90
19330;DHT22;9799;48.214;16.388;2022-12-11T05:44:57;2.50;99.90
19330;DHT22;9799;48.214;16.388;2022-12-11T05:48:19;2.50;99.90
19330;DHT22;9799;48.214;16.388;2022-12-11T05:51:40;2.60;99.90
19330;DHT22;9799;48.214;16.388;2022-12-11T05:55:04;2.60;99.90
19330;DHT22;9799;48.214;16.388;2022-12-11T05:58:25;2.50;99.90
19330;DHT22;9799;48.214;16.388;2022-12-11T06:01:47;2.40;99.90
19330;DHT22;9799;48.214;16.388;2022-12-11T06:05:08;2.50;99.90
19330;DHT22;9799;48.214;16.388;2022-12-11T06:08:30;2.50;99.90
19330;DHT22;9799;48.214;16.388;2022-12-11T06:11:52;2.60;99.90
19330;DHT22;9799;48.214;16.388;2022-12-11T06:15:13;2.60;99.90
19330;DHT22;9799;48.214;16.388;2022-12-11T06:18:35;2.60;99.90
19330;DHT22;9799;48.214;16.388;2022-12-11T06:21:56;2.70;99.90
19330;DHT22;9799;48.214;16.388;2022-12-11T06:25:17;2.70;99.90
19330;DHT22;9799;48.214;16.388;2022-12-11T06:28:40;2.60;99.90
19330;DHT22;9799;48.214;16.388;2022-12-11T06:32:02;2.60;99.90
19330;DHT22;9799;48.214;16.388;2022-12-11T06:35:23;2.60;99.90
19330;DHT22;9799;48.214;16.388;2022-12-11T06:38:44;2.70;99.90
19330;DHT22;9799;48.214;16.388;2022-12-11T06:42:06;2.70;99.90
19330;DHT22;9799;48.214;16.388;2022-12-11T06:45:29;2.80;99.90
19330;DHT22;9799;48.214;16.388;2022-12-11T06:48:50;2.80;99.90
19330;DHT22;9799;48.214;16.388;2022-12-11T06:52:11;2.80;99.90
19330;DHT22;9799;48.214;16.388;2022-12-11T06:55:33;2.80;99.90
19330;DHT22;9799;48.214;16.388;2022-12-11T06:58:55;2.80;99.90
19330;DHT22;9799;48.214;16.388;2022-12-11T07:02:18;2.70;99.90
19330;DHT22;9799;48.214;16.388;2022-12-11T07:05:39;2.70;99.90
19330;DHT22;9799;48.214;16.388;2022-12-11T07:09:02;2.70;99.90
19330;DHT22;9799;48.214;16.388;2022-12-11T07:12:23;2.60;99.90
19330;DHT22;9799;48.214;16.388;2022-12-11T07:15:45;2.70;99.90
19330;DHT22;9799;48.214;16.388;2022-12-11T07:19:07;2.70;99.90
19330;DHT22;9799;48.214;16.388;2022-12-11T07:22:28;2.70;99.90
19330;DHT22;9799;48.214;16.388;2022-12-11T07:25:49;2.80;99.90
19330;DHT22;9799;48.214;16.388;2022-12-11T07:29:11;2.80;99.90
19330;DHT22;9799;48.214;16.388;2022-12-11T07:32:32;2.70;99.90
19330;DHT22;9799;48.214;16.388;2022-12-11T07:35:55;2.70;99.90
19330;DHT22;9799;48.214;16.388;2022-12-11T07:39:16;2.70;99.90
19330;DHT22;9799;48.214;16.388;2022-12-11T07:42:37;2.70;99.90
19330;DHT22;9799;48.214;16.388;2022-12-11T07:46:00;2.60;99.90
19330;DHT22;9799;48.214;16.388;2022-12-11T07:49:22;2.70;99.90
19330;DHT22;9799;48.214;16.388;2022-12-11T07:52:44;2.70;99.90
19330;DHT22;9799;48.214;16.388;2022-12-11T07:56:06;2.80;99.90
19330;DHT22;9799;48.214;16.388;2022-12-11T07:59:27;2.60;99.90
19330;DHT22;9799;48.214;16.388;2022-12-11T08:02:48;2.70;99.90
19330;DHT22;9799;48.214;16.388;2022-12-11T08:06:10;2.80;99.90
19330;DHT22;9799;48.214;16.388;2022-12-11T08:09:33;2.70;99.90
19330;DHT22;9799;48.214;16.388;2022-12-11T08:12:54;2.70;99.90
19330;DHT22;9799;48.214;16.388;2022-12-11T08:16:16;2.70;99.90
19330;DHT22;9799;48.214;16.388;2022-12-11T08:19:37;2.70;99.90
19330;DHT22;9799;48.214;16.388;2022-12-11T08:22:59;2.80;99.90
19330;DHT22;9799;48.214;16.388;2022-12-11T08:26:23;2.80;99.90
19330;DHT22;9799;48.214;16.388;2022-12-11T08:29:45;2.80;99.90
19330;DHT22;9799;48.214;16.388;2022-12-11T08:33:06;2.80;99.90
19330;DHT22;9799;48.214;16.388;2022-12-11T08:36:27;2.80;99.90
19330;DHT22;9799;48.214;16.388;2022-12-11T08:39:48;2.80;99.90
19330;DHT22;9799;48.214;16.388;2022-12-11T08:43:11;2.90;99.90
19330;DHT22;9799;48.214;16.388;2022-12-11T08:46:33;2.90;99.90
19330;DHT22;9799;48.214;16.388;2022-12-11T08:49:54;2.90;99.90
19330;DHT22;9799;48.214;16.388;2022-12-11T08:53:15;2.80;99.90
19330;DHT22;9799;48.214;16.388;2022-12-11T08:56:37;3.00;99.90
19330;DHT22;9799;48.214;16.388;2022-12-11T08:59:59;3.20;99.90
19330;DHT22;9799;48.214;16.388;2022-12-11T09:03:20;3.10;99.90
19330;DHT22;9799;48.214;16.388;2022-12-11T09:06:42;3.20;99.90
19330;DHT22;9799;48.214;16.388;2022-12-11T09:10:04;3.10;99.90
19330;DHT22;9799;48.214;16.388;2022-12-11T09:13:26;3.00;99.90
19330;DHT22;9799;48.214;16.388;2022-12-11T09:16:48;3.10;99.90
19330;DHT22;9799;48.214;16.388;2022-12-11T09:20:10;3.00;99.90
19330;DHT22;9799;48.214;16.388;2022-12-11T09:23:32;3.00;99.90
19330;DHT22;9799;48.214;16.388;2022-12-11T09:26:53;3.00;99.90
19330;DHT22;9799;48.214;16.388;2022-12-11T09:30:14;3.00;99.90
19330;DHT22;9799;48.214;16.388;2022-12-11T09:33:37;2.90;99.90
19330;DHT22;9799;48.214;16.388;2022-12-11T09:36:58;2.80;99.90
19330;DHT22;9799;48.214;16.388;2022-12-11T09:40:19;2.80;99.90
19330;DHT22;9799;48.214;16.388;2022-12-11T09:43:44;2.90;99.90
19330;DHT22;9799;48.214;16.388;2022-12-11T09:47:30;2.90;99.90
19330;DHT22;9799;48.214;16.388;2022-12-11T09:50:56;2.90;99.90
19330;DHT22;9799;48.214;16.388;2022-12-11T09:54:18;2.90;99.90
19330;DHT22;9799;48.214;16.388;2022-12-11T09:57:47;2.80;99.90
19330;DHT22;9799;48.214;16.388;2022-12-11T10:01:13;2.90;99.90
19330;DHT22;9799;48.214;16.388;2022-12-11T10:04:44;3.00;99.90
19330;DHT22;9799;48.214;16.388;2022-12-11T10:08:15;3.00;99.90
19330;DHT22;9799;48.214;16.388;2022-12-11T10:11:49;3.20;99.90
19330;DHT22;9799;48.214;16.388;2022-12-11T10:15:25;3.20;99.90
19330;DHT22;9799;48.214;16.388;2022-12-11T10:18:49;3.10;99.90
19330;DHT22;9799;48.214;16.388;2022-12-11T10:22:16;3.00;99.90
19330;DHT22;9799;48.214;16.388;2022-12-11T10:25:42;3.00;99.90
19330;DHT22;9799;48.214;16.388;2022-12-11T10:29:10;3.10;99.90
19330;DHT22;9799;48.214;16.388;2022-12-11T10:32:39;3.10;99.90
19330;DHT22;9799;48.214;16.388;2022-12-11T10:36:06;3.20;99.90
19330;DHT22;9799;48.214;16.388;2022-12-11T10:39:28;3.20;99.90
19330;DHT22;9799;48.214;16.388;2022-12-11T10:42:53;3.30;99.90
19330;DHT22;9799;48.214;16.388;2022-12-11T10:46:18;3.40;99.90
19330;DHT22;9799;48.214;16.388;2022-12-11T10:49:50;3.30;99.90
19330;DHT22;9799;48.214;16.388;2022-12-11T10:53:19;3.40;99.90
19330;DHT22;9799;48.214;16.388;2022-12-11T10:56:45;3.50;99.90
19330;DHT22;9799;48.214;16.388;2022-12-11T11:00:29;3.50;99.90
19330;DHT22;9799;48.214;16.388;2022-12-11T11:03:54;3.20;99.90
19330;DHT22;9799;48.214;16.388;2022-12-11T11:07:19;3.10;99.90
19330;DHT22;9799;48.214;16.388;2022-12-11T11:10:55;3.10;99.90
19330;DHT22;9799;48.214;16.388;2022-12-11T11:14:17;3.10;99.90
19330;DHT22;9799;48.214;16.388;2022-12-11T11:17:45;3.10;99.90
19330;DHT22;9799;48.214;16.388;2022-12-11T11:21:15;3.10;99.90
19330;DHT22;9799;48.214;16.388;2022-12-11T11:24:39;3.10;99.90
19330;DHT22;9799;48.214;16.388;2022-12-11T11:28:04;3.00;99.90
19330;DHT22;9799;48.214;16.388;2022-12-11T11:31:31;3.20;99.90
19330;DHT22;9799;48.214;16.388;2022-12-11T11:35:05;3.20;99.90
19330;DHT22;9799;48.214;16.388;2022-12-11T11:38:28;3.20;99.90
19330;DHT22;9799;48.214;16.388;2022-12-11T11:41:55;3.10;99.90
19330;DHT22;9799;48.214;16.388;2022-12-11T11:45:21;3.10;99.90
19330;DHT22;9799;48.214;16.388;2022-12-11T11:48:49;3.20;99.90
19330;DHT22;9799;48.214;16.388;2022-12-11T11:52:16;3.20;99.90
19330;DHT22;9799;48.214;16.388;2022-12-11T11:55:50;3.30;99.90
19330;DHT22;9799;48.214;16.388;2022-12-11T11:59:19;3.30;99.90
19330;DHT22;9799;48.214;16.388;2022-12-11T12:02:41;3.10;99.90
19330;DHT22;9799;48.214;16.388;2022-12-11T12:06:08;3.10;99.90
19330;DHT22;9799;48.214;16.388;2022-12-11T12:09:41;3.00;99.90
19330;DHT22;9799;48.214;16.388;2022-12-11T12:13:08;3.10;99.90
19330;DHT22;9799;48.214;16.388;2022-12-11T12:16:38;3.10;99.90
19330;DHT22;9799;48.214;16.388;2022-12-11T12:20:09;3.00;99.90
19330;DHT22;9799;48.214;16.388;2022-12-11T12:23:47;3.00;99.90
19330;DHT22;9799;48.214;16.388;2022-12-11T12:27:18;2.90;99.90
19330;DHT22;9799;48.214;16.388;2022-12-11T12:30:47;2.80;99.90
19330;DHT22;9799;48.214;16.388;2022-12-11T12:34:18;2.80;99.90
19330;DHT22;9799;48.214;16.388;2022-12-11T12:37:49;2.90;99.90
19330;DHT22;9799;48.214;16.388;2022-12-11T12:41:19;2.80;99.90
19330;DHT22;9799;48.214;16.388;2022-12-11T12:44:48;2.70;99.90
19330;DHT22;9799;48.214;16.388;2022-12-11T12:48:11;2.70;99.90
19330;DHT22;9799;48.214;16.388;2022-12-11T12:51:33;2.70;99.90
19330;DHT22;9799;48.214;16.388;2022-12-11T12:54:58;2.60;99.90
19330;DHT22;9799;48.214;16.388;2022-12-11T12:58:42;2.70;99.90
19330;DHT22;9799;48.214;16.388;2022-12-11T13:02:12;2.60;99.90
19330;DHT22;9799;48.214;16.388;2022-12-11T13:05:35;2.70;99.90
19330;DHT22;9799;48.214;16.388;2022-12-11T13:08:56;2.60;99.90
19330;DHT22;9799;48.214;16.388;2022-12-11T13:12:31;2.50;99.90
19330;DHT22;9799;48.214;16.388;2022-12-11T13:15:52;2.40;99.90
19330;DHT22;9799;48.214;16.388;2022-12-11T13:19:26;2.50;99.90
19330;DHT22;9799;48.214;16.388;2022-12-11T13:22:53;2.70;99.90
19330;DHT22;9799;48.214;16.388;2022-12-11T13:26:27;2.60;99.90
19330;DHT22;9799;48.214;16.388;2022-12-11T13:29:48;2.50;99.90
19330;DHT22;9799;48.214;16.388;2022-12-11T13:33:14;2.60;99.90
19330;DHT22;9799;48.214;16.388;2022-12-11T13:36:40;2.60;99.90
19330;DHT22;9799;48.214;16.388;2022-12-11T13:40:13;2.50;99.90
19330;DHT22;9799;48.214;16.388;2022-12-11T13:43:37;2.40;99.90
19330;DHT22;9799;48.214;16.388;2022-12-11T13:47:01;2.40;99.90
19330;DHT22;9799;48.214;16.388;2022-12-11T13:50:25;2.40;99.90
19330;DHT22;9799;48.214;16.388;2022-12-11T13:54:02;2.50;99.90
19330;DHT22;9799;48.214;16.388;2022-12-11T13:57:25;2.50;99.90
19330;DHT22;9799;48.214;16.388;2022-12-11T14:01:05;2.60;99.90
19330;DHT22;9799;48.214;16.388;2022-12-11T14:04:30;2.60;99.90
19330;DHT22;9799;48.214;16.388;2022-12-11T14:07:56;2.70;99.90
19330;DHT22;9799;48.214;16.388;2022-12-11T14:11:21;2.70;99.90
19330;DHT22;9799;48.214;16.388;2022-12-11T14:14:46;2.70;99.90
19330;DHT22;9799;48.214;16.388;2022-12-11T14:18:14;2.50;99.90
19330;DHT22;9799;48.214;16.388;2022-12-11T14:21:38;2.50;99.90
19330;DHT22;9799;48.214;16.388;2022-12-11T14:25:01;2.40;99.90
19330;DHT22;9799;48.214;16.388;2022-12-11T14:28:25;2.40;99.90
19330;DHT22;9799;48.214;16.388;2022-12-11T14:31:47;2.50;99.90
19330;DHT22;9799;48.214;16.388;2022-12-11T14:35:20;2.60;99.90
19330;DHT22;9799;48.214;16.388;2022-12-11T14:38:45;2.60;99.90
19330;DHT22;9799;48.214;16.388;2022-12-11T14:42:11;2.60;99.90
19330;DHT22;9799;48.214;16.388;2022-12-11T14:45:37;2.70;99.90
19330;DHT22;9799;48.214;16.388;2022-12-11T14:49:02;2.60;99.90
19330;DHT22;9799;48.214;16.388;2022-12-11T14:52:28;2.70;99.90
19330;DHT22;9799;48.214;16.388;2022-12-11T14:55:52;2.70;99.90
19330;DHT22;9799;48.214;16.388;2022-12-11T14:59:18;2.60;99.90
19330;DHT22;9799;48.214;16.388;2022-12-11T15:02:43;2.50;99.90
19330;DHT22;9799;48.214;16.388;2022-12-11T15:06:23;2.40;99.90
19330;DHT22;9799;48.214;16.388;2022-12-11T15:09:45;2.50;99.90
19330;DHT22;9799;48.214;16.388;2022-12-11T15:13:07;2.60;99.90
19330;DHT22;9799;48.214;16.388;2022-12-11T15:16:32;2.60;99.90
19330;DHT22;9799;48.214;16.388;2022-12-11T15:20:04;2.50;99.90
19330;DHT22;9799;48.214;16.388;2022-12-11T15:23:27;2.50;99.90
19330;DHT22;9799;48.214;16.388;2022-12-11T15:26:48;2.30;99.90
19330;DHT22;9799;48.214;16.388;2022-12-11T15:30:29;2.30;99.90
19330;DHT22;9799;48.214;16.388;2022-12-11T15:33:51;2.30;99.90
19330;DHT22;9799;48.214;16.388;2022-12-11T15:37:24;2.30;99.90
19330;DHT22;9799;48.214;16.388;2022-12-11T15:40:47;2.40;99.90
19330;DHT22;9799;48.214;16.388;2022-12-11T15:44:16;2.40;99.90
19330;DHT22;9799;48.214;16.388;2022-12-11T15:47:41;2.40;99.90
19330;DHT22;9799;48.214;16.388;2022-12-11T15:51:02;2.40;99.90
19330;DHT22;9799;48.214;16.388;2022-12-11T15:54:25;2.30;99.90
19330;DHT22;9799;48.214;16.388;2022-12-11T15:57:49;2.30;99.90
19330;DHT22;9799;48.214;16.388;2022-12-11T16:01:12;2.30;99.90
19330;DHT22;9799;48.214;16.388;2022-12-11T16:04:33;2.30;99.90
19330;DHT22;9799;48.214;16.388;2022-12-11T16:07:54;2.40;99.90
19330;DHT22;9799;48.214;16.388;2022-12-11T16:11:19;2.40;99.90
19330;DHT22;9799;48.214;16.388;2022-12-11T16:14:41;2.60;99.90
19330;DHT22;9799;48.214;16.388;2022-12-11T16:18:04;2.60;99.90
19330;DHT22;9799;48.214;16.388;2022-12-11T16:21:26;2.50;99.90
19330;DHT22;9799;48.214;16.388;2022-12-11T16:24:51;2.60;99.90
19330;DHT22;9799;48.214;16.388;2022-12-11T16:28:15;2.60;99.90
19330;DHT22;9799;48.214;16.388;2022-12-11T16:31:38;2.60;99.90
19330;DHT22;9799;48.214;16.388;2022-12-11T16:35:00;2.40;99.90
19330;DHT22;9799;48.214;16.388;2022-12-11T16:38:21;2.40;99.90
19330;DHT22;9799;48.214;16.388;2022-12-11T16:41:43;2.40;99.90
19330;DHT22;9799;48.214;16.388;2022-12-11T16:45:09;2.40;99.90
19330;DHT22;9799;48.214;16.388;2022-12-11T16:48:32;2.50;99.90
19330;DHT22;9799;48.214;16.388;2022-12-11T16:51:53;2.50;99.90
19330;DHT22;9799;48.214;16.388;2022-12-11T16:55:14;2.40;99.90
19330;DHT22;9799;48.214;16.388;2022-12-11T16:58:39;2.30;99.90
19330;DHT22;9799;48.214;16.388;2022-12-11T17:02:02;2.40;99.90
19330;DHT22;9799;48.214;16.388;2022-12-11T17:05:23;2.40;99.90
19330;DHT22;9799;48.214;16.388;2022-12-11T17:08:45;2.40;99.90
19330;DHT22;9799;48.214;16.388;2022-12-11T17:12:07;2.30;99.90
19330;DHT22;9799;48.214;16.388;2022-12-11T17:15:29;2.50;99.90
19330;DHT22;9799;48.214;16.388;2022-12-11T17:18:54;2.60;99.90
19330;DHT22;9799;48.214;16.388;2022-12-11T17:22:16;2.60;99.90
19330;DHT22;9799;48.214;16.388;2022-12-11T17:25:39;2.50;99.90
19330;DHT22;9799;48.214;16.388;2022-12-11T17:29:01;2.50;99.90
19330;DHT22;9799;48.214;16.388;2022-12-11T17:32:23;2.50;99.90
19330;DHT22;9799;48.214;16.388;2022-12-11T17:35:46;2.50;99.90
19330;DHT22;9799;48.214;16.388;2022-12-11T17:39:08;2.40;99.90
19330;DHT22;9799;48.214;16.388;2022-12-11T17:42:31;2.20;99.90
19330;DHT22;9799;48.214;16.388;2022-12-11T17:45:54;2.30;99.90
19330;DHT22;9799;48.214;16.388;2022-12-11T17:49:17;2.10;99.90
19330;DHT22;9799;48.214;16.388;2022-12-11T17:52:41;1.90;99.90
19330;DHT22;9799;48.214;16.388;2022-12-11T17:56:04;2.00;99.90
19330;DHT22;9799;48.214;16.388;2022-12-11T17:59:26;2.10;99.90
19330;DHT22;9799;48.214;16.388;2022-12-11T18:02:47;2.20;99.90
19330;DHT22;9799;48.214;16.388;2022-12-11T18:06:11;2.10;99.90
19330;DHT22;9799;48.214;16.388;2022-12-11T18:09:34;2.00;99.90
19330;DHT22;9799;48.214;16.388;2022-12-11T18:12:58;2.00;99.90
19330;DHT22;9799;48.214;16.388;2022-12-11T18:16:22;2.00;99.90
19330;DHT22;9799;48.214;16.388;2022-12-11T18:19:45;2.00;99.90
19330;DHT22;9799;48.214;16.388;2022-12-11T18:23:07;2.10;99.90
19330;DHT22;9799;48.214;16.388;2022-12-11T18:26:31;2.10;99.90
19330;DHT22;9799;48.214;16.388;2022-12-11T18:29:53;2.10;99.90
19330;DHT22;9799;48.214;16.388;2022-12-11T18:33:15;1.90;99.90
19330;DHT22;9799;48.214;16.388;2022-12-11T18:36:37;1.90;99.90
19330;DHT22;9799;48.214;16.388;2022-12-11T18:39:59;1.90;99.90
19330;DHT22;9799;48.214;16.388;2022-12-11T18:43:22;1.80;99.90
19330;DHT22;9799;48.214;16.388;2022-12-11T18:46:43;1.90;99.90
19330;DHT22;9799;48.214;16.388;2022-12-11T18:50:05;2.00;99.90
19330;DHT22;9799;48.214;16.388;2022-12-11T18:53:28;1.90;99.90
19330;DHT22;9799;48.214;16.388;2022-12-11T18:56:49;1.90;99.90
19330;DHT22;9799;48.214;16.388;2022-12-11T19:00:15;1.80;99.90
19330;DHT22;9799;48.214;16.388;2022-12-11T19:03:41;1.90;99.90
19330;DHT22;9799;48.214;16.388;2022-12-11T19:07:03;1.80;99.90
19330;DHT22;9799;48.214;16.388;2022-12-11T19:10:26;1.80;99.90
19330;DHT22;9799;48.214;16.388;2022-12-11T19:13:48;1.90;99.90
19330;DHT22;9799;48.214;16.388;2022-12-11T19:17:11;1.90;99.90
19330;DHT22;9799;48.214;16.388;2022-12-11T19:20:35;1.90;99.90
19330;DHT22;9799;48.214;16.388;2022-12-11T19:23:57;1.80;99.90
19330;DHT22;9799;48.214;16.388;2022-12-11T19:27:20;1.70;99.90
19330;DHT22;9799;48.214;16.388;2022-12-11T19:30:42;1.80;99.90
19330;DHT22;9799;48.214;16.388;2022-12-11T19:34:05;1.80;99.90
19330;DHT22;9799;48.214;16.388;2022-12-11T19:37:27;1.60;99.90
19330;DHT22;9799;48.214;16.388;2022-12-11T19:40:48;1.80;99.90
19330;DHT22;9799;48.214;16.388;2022-12-11T19:44:11;2.00;99.90
19330;DHT22;9799;48.214;16.388;2022-12-11T19:47:34;1.90;99.90
19330;DHT22;9799;48.214;16.388;2022-12-11T19:51:03;1.90;99.90
19330;DHT22;9799;48.214;16.388;2022-12-11T19:54:24;1.90;99.90
19330;DHT22;9799;48.214;16.388;2022-12-11T19:57:47;2.00;99.90
19330;DHT22;9799;48.214;16.388;2022-12-11T20:01:18;2.10;99.90
19330;DHT22;9799;48.214;16.388;2022-12-11T20:04:41;2.20;99.90
19330;DHT22;9799;48.214;16.388;2022-12-11T20:08:07;2.10;99.90
19330;DHT22;9799;48.214;16.388;2022-12-11T20:11:30;2.20;99.90
19330;DHT22;9799;48.214;16.388;2022-12-11T20:14:53;2.20;99.90
19330;DHT22;9799;48.214;16.388;2022-12-11T20:18:15;2.10;99.90
19330;DHT22;9799;48.214;16.388;2022-12-11T20:21:37;2.10;99.90
19330;DHT22;9799;48.214;16.388;2022-12-11T20:25:02;2.10;99.90
19330;DHT22;9799;48.214;16.388;2022-12-11T20:28:24;2.00;99.90
19330;DHT22;9799;48.214;16.388;2022-12-11T20:31:49;2.00;99.90
19330;DHT22;9799;48.214;16.388;2022-12-11T20:35:11;2.10;99.90
19330;DHT22;9799;48.214;16.388;2022-12-11T20:38:33;2.00;99.90
19330;DHT22;9799;48.214;16.388;2022-12-11T20:41:58;2.10;99.90
19330;DHT22;9799;48.214;16.388;2022-12-11T20:45:24;1.90;99.90
19330;DHT22;9799;48.214;16.388;2022-12-11T20:48:46;2.00;99.90
19330;DHT22;9799;48.214;16.388;2022-12-11T20:52:08;2.10;99.90
19330;DHT22;9799;48.214;16.388;2022-12-11T20:55:31;2.10;99.90
19330;DHT22;9799;48.214;16.388;2022-12-11T20:58:54;2.10;99.90
19330;DHT22;9799;48.214;16.388;2022-12-11T21:02:19;2.10;99.90
19330;DHT22;9799;48.214;16.388;2022-12-11T21:05:42;2.10;99.90
19330;DHT22;9799;48.214;16.388;2022-12-11T21:09:06;2.20;99.90
19330;DHT22;9799;48.214;16.388;2022-12-11T21:12:31;2.10;99.90
19330;DHT22;9799;48.214;16.388;2022-12-11T21:15:55;2.00;99.90
19330;DHT22;9799;48.214;16.388;2022-12-11T21:19:17;2.10;99.90
19330;DHT22;9799;48.214;16.388;2022-12-11T21:22:39;2.10;99.90
19330;DHT22;9799;48.214;16.388;2022-12-11T21:26:01;2.20;99.90
19330;DHT22;9799;48.214;16.388;2022-12-11T21:29:24;2.10;99.90
19330;DHT22;9799;48.214;16.388;2022-12-11T21:32:47;2.10;99.90
19330;DHT22;9799;48.214;16.388;2022-12-11T21:36:10;2.10;99.90
19330;DHT22;9799;48.214;16.388;2022-12-11T21:39:32;2.00;99.90
19330;DHT22;9799;48.214;16.388;2022-12-11T21:42:56;2.00;99.90
19330;DHT22;9799;48.214;16.388;2022-12-11T21:46:19;1.90;99.90
19330;DHT22;9799;48.214;16.388;2022-12-11T21:49:42;2.00;99.90